Terminal Aerodrome Forecast
Issued by NWS Twin Cities, MN

Home | Current Version | Previous Version | Text Only | Print | Product List | Glossary On
Versions: 1 2 3 4 5 6 7 8 9 10 11 12 13 14 15 16 17 18 19 20 21
000
FTUS43 KMPX 282300
TAFSTC
TAF
KSTC 282333Z 2900/2924 12004KT P6SM SCT018 BKN090
     FM291500 17007KT P6SM SCT090
     FM292000 27008KT P6SM SCT020 BKN070=

USA.gov is the U.S. government's official web portal to all federal, state and local government web resources and services.